Time;durP1;ratioP1;P1;durP2;ratioP2;P2;SDS_P1;SDS_P2;PMS_P1;PMS_P2;Temp;Humidity;BMP_temperature;BMP_pressure;BME280_temperature;BME280_humidity;BME280_pressure;Samples;Min_cycle;Max_cycle;Signal;HPM_P1;HPM_P2
2023/05/14 00:00:29;;;;;;;4.75;3.72;;;;;;;12.42;63.69;101233.41;4961327;28;20057;-82
2023/05/14 00:02:56;;;;;;;6.50;4.50;;;;;;;12.41;63.95;101237.81;4953073;28;20046;-84
2023/05/14 00:05:23;;;;;;;5.95;4.90;;;;;;;12.37;64.26;101240.47;4954610;28;20708;-80
2023/05/14 00:07:49;;;;;;;4.80;4.32;;;;;;;12.36;63.99;101242.22;4938777;29;20423;-80
2023/05/14 00:10:17;;;;;;;5.22;4.72;;;;;;;12.33;64.72;101249.25;4960161;28;20110;-82
2023/05/14 00:12:44;;;;;;;5.85;4.40;;;;;;;12.28;65.63;101245.78;4936887;29;20074;-82
2023/05/14 00:15:11;;;;;;;8.07;4.95;;;;;;;12.23;66.04;101245.81;4941985;29;20406;-82
2023/05/14 00:17:38;;;;;;;4.55;4.15;;;;;;;12.19;66.50;101244.97;4960557;29;20039;-81
2023/05/14 00:20:06;;;;;;;7.53;4.93;;;;;;;12.15;67.75;101248.50;4937431;28;20055;-82
2023/05/14 00:22:35;;;;;;;7.70;5.20;;;;;;;12.08;67.93;101239.78;4941947;29;20048;-82
2023/05/14 00:25:02;;;;;;;5.03;4.57;;;;;;;12.06;68.90;101244.16;4945829;29;20434;-85
2023/05/14 00:27:29;;;;;;;6.50;4.72;;;;;;;12.01;69.63;101240.69;4960290;28;20075;-85
2023/05/14 00:29:55;;;;;;;5.18;4.55;;;;;;;11.97;70.42;101241.59;4969585;28;20035;-82
2023/05/14 00:32:23;;;;;;;5.32;4.85;;;;;;;11.91;72.54;101237.22;4950549;28;20118;-86
2023/05/14 00:34:50;;;;;;;5.90;5.22;;;;;;;11.91;73.59;101231.09;4963974;28;20043;-82
2023/05/14 00:37:16;;;;;;;10.95;6.05;;;;;;;11.87;74.50;101237.22;4969673;28;20053;-87
2023/05/14 00:39:43;;;;;;;5.82;4.90;;;;;;;11.82;73.88;101231.13;4968425;28;20039;-84
2023/05/14 00:42:09;;;;;;;8.77;5.10;;;;;;;11.78;75.03;101232.03;4976412;28;20053;-85
2023/05/14 00:44:36;;;;;;;6.18;4.63;;;;;;;11.70;75.73;101227.69;4968736;28;20067;-83
2023/05/14 00:47:03;;;;;;;5.63;5.07;;;;;;;11.64;76.04;101226.84;4960449;28;20035;-81
2023/05/14 00:49:30;;;;;;;8.48;5.25;;;;;;;11.64;76.36;101232.97;4951082;29;20406;-81
2023/05/14 00:51:57;;;;;;;6.53;5.57;;;;;;;11.58;78.57;101241.72;4949449;29;20036;-82
2023/05/14 00:54:24;;;;;;;6.32;5.70;;;;;;;11.55;79.34;101236.50;4961926;28;20047;-82
2023/05/14 00:56:51;;;;;;;10.23;5.80;;;;;;;11.51;79.78;101242.63;4954619;29;20337;-82
2023/05/14 00:59:17;;;;;;;5.28;4.88;;;;;;;11.52;79.19;101246.13;4955988;29;20039;-81
2023/05/14 01:01:44;;;;;;;9.07;5.30;;;;;;;11.47;80.76;101240.00;4929337;29;20087;-85
2023/05/14 01:04:14;;;;;;;7.97;5.90;;;;;;;11.44;81.47;101235.66;4943222;28;20071;-83
2023/05/14 01:07:01;;;;;;;6.57;5.60;;;;;;;11.41;81.78;101239.16;4945875;29;20043;-84
2023/05/14 01:09:52;;;;;;;6.65;5.95;;;;;;;11.38;82.02;101236.56;4953064;29;20047;-84
2023/05/14 01:12:46;;;;;;;7.85;6.32;;;;;;;11.35;82.71;101236.53;4949594;29;20102;-82
2023/05/14 01:15:22;;;;;;;8.95;5.78;;;;;;;11.28;82.95;101232.22;4951262;29;20039;-82
2023/05/14 01:17:54;;;;;;;7.95;6.18;;;;;;;11.22;82.42;101229.59;4949942;28;20039;-89
2023/05/14 01:20:21;;;;;;;6.57;6.00;;;;;;;11.19;83.33;101230.47;4952160;28;20129;-85
2023/05/14 01:22:48;;;;;;;7.95;5.65;;;;;;;11.15;83.96;101236.59;4961102;28;20039;-84
2023/05/14 01:25:14;;;;;;;6.22;5.63;;;;;;;11.11;84.55;101234.88;4937954;29;20047;-83
2023/05/14 01:27:56;;;;;;;6.43;5.82;;;;;;;11.09;85.45;101239.22;4951449;28;20359;-83
2023/05/14 01:30:32;;;;;;;6.63;6.03;;;;;;;11.06;85.04;101234.00;4963193;28;20051;-82
2023/05/14 01:33:03;;;;;;;11.05;6.53;;;;;;;11.00;85.66;101234.91;4945937;29;20362;-82
2023/05/14 01:35:30;;;;;;;6.65;5.43;;;;;;;10.99;86.01;101234.88;4935543;28;20058;-83
2023/05/14 01:38:00;;;;;;;9.38;5.72;;;;;;;10.96;86.70;101233.13;4939462;29;20054;-87
2023/05/14 01:40:27;;;;;;;5.97;5.47;;;;;;;10.94;87.14;101232.28;4955537;28;20046;-81
2023/05/14 01:42:55;;;;;;;6.90;5.60;;;;;;;10.92;86.99;101228.78;4947500;28;20043;-83
2023/05/14 01:45:22;;;;;;;7.57;5.72;;;;;;;10.90;87.77;101233.16;4958333;28;20035;-82
2023/05/14 01:47:49;;;;;;;9.05;5.47;;;;;;;10.87;88.12;101236.66;4954335;29;20098;-80
2023/05/14 01:50:16;;;;;;;6.47;5.22;;;;;;;10.88;88.03;101234.91;4936114;29;20149;-82
2023/05/14 01:52:42;;;;;;;6.30;5.20;;;;;;;10.86;88.08;101234.91;4956121;29;20063;-81
2023/05/14 01:55:09;;;;;;;10.60;5.20;;;;;;;10.83;88.69;101229.66;4950945;28;20098;-81
2023/05/14 01:57:36;;;;;;;6.15;5.57;;;;;;;10.81;89.57;101222.66;4947166;29;20039;-83
2023/05/14 02:00:03;;;;;;;7.53;4.97;;;;;;;10.78;89.35;101228.81;4949523;28;20485;-81
2023/05/14 02:02:30;;;;;;;6.50;5.70;;;;;;;10.74;90.02;101222.69;4937340;29;20047;-84
2023/05/14 02:04:56;;;;;;;6.10;5.47;;;;;;;10.73;90.11;101222.69;4961028;28;20039;-85
2023/05/14 02:07:22;;;;;;;5.97;5.38;;;;;;;10.72;90.30;101226.19;4946468;29;20039;-82
2023/05/14 02:09:49;;;;;;;5.45;5.05;;;;;;;10.66;91.15;101223.56;4952640;29;20043;-81
2023/05/14 02:12:15;;;;;;;7.13;5.70;;;;;;;10.67;91.36;101225.31;4952914;28;20044;-82
2023/05/14 02:14:42;;;;;;;5.93;5.43;;;;;;;10.62;91.00;101214.81;4944550;29;20050;-85
2023/05/14 02:17:08;;;;;;;5.65;5.13;;;;;;;10.61;91.44;101220.06;4949945;29;20039;-81
2023/05/14 02:19:35;;;;;;;6.57;5.90;;;;;;;10.59;92.93;101218.31;4952823;28;20422;-82
2023/05/14 02:22:02;;;;;;;5.70;5.20;;;;;;;10.55;92.86;101220.94;4953945;28;20043;-82
2023/05/14 02:24:28;;;;;;;6.65;5.70;;;;;;;10.53;92.93;101209.59;4932094;28;20043;-81
2023/05/14 02:26:55;;;;;;;6.03;5.45;;;;;;;10.52;93.72;101208.72;4952624;29;20043;-88
2023/05/14 02:29:21;;;;;;;10.40;5.68;;;;;;;10.51;93.52;101206.13;4955781;28;20118;-84
2023/05/14 02:31:48;;;;;;;6.05;5.50;;;;;;;10.50;93.75;101199.13;4953659;28;20494;-82
2023/05/14 02:34:15;;;;;;;9.40;6.75;;;;;;;10.47;94.55;101202.63;4951914;28;20527;-82
2023/05/14 02:36:41;;;;;;;5.97;5.28;;;;;;;10.45;94.27;101203.50;4943605;28;20078;-88
2023/05/14 02:39:08;;;;;;;6.68;5.97;;;;;;;10.42;94.37;101199.13;4936997;29;20923;-82
2023/05/14 02:41:34;;;;;;;5.82;5.32;;;;;;;10.40;95.03;101211.31;4949396;28;20057;-82
2023/05/14 02:44:01;;;;;;;7.15;6.32;;;;;;;10.35;95.56;101202.56;4951795;29;20486;-82
2023/05/14 02:46:27;;;;;;;9.95;6.07;;;;;;;10.32;95.55;101206.06;4928803;28;20043;-83
2023/05/14 02:48:56;;;;;;;5.30;4.85;;;;;;;10.30;96.21;101205.19;4951124;29;20602;-90
2023/05/14 02:51:23;;;;;;;5.97;5.47;;;;;;;10.26;96.25;101203.44;4945672;29;20054;-81
2023/05/14 02:53:49;;;;;;;6.05;5.55;;;;;;;10.22;96.62;101206.91;4953565;28;20138;-83
2023/05/14 02:56:16;;;;;;;6.10;5.50;;;;;;;10.22;97.46;101210.41;4929320;29;20053;-81
2023/05/14 02:58:42;;;;;;;8.18;6.22;;;;;;;10.20;97.84;101206.91;4948190;29;20043;-82
2023/05/14 03:01:08;;;;;;;7.60;5.72;;;;;;;10.20;98.11;101206.91;4952606;28;20485;-82
2023/05/14 03:03:37;;;;;;;6.95;5.50;;;;;;;10.18;97.88;101207.78;4951125;29;20126;-82
2023/05/14 03:06:04;;;;;;;6.78;6.07;;;;;;;10.16;98.24;101202.56;4948450;29;20149;-82
2023/05/14 03:08:31;;;;;;;6.78;5.35;;;;;;;10.13;98.51;101204.28;4952242;29;20367;-82
2023/05/14 03:10:59;;;;;;;6.43;5.18;;;;;;;10.14;98.61;101206.03;4923298;28;20050;-83
2023/05/14 03:13:25;;;;;;;6.20;5.70;;;;;;;10.10;98.87;101203.41;4935675;29;20082;-82
2023/05/14 03:15:53;;;;;;;6.03;5.43;;;;;;;10.07;98.84;101203.41;4952079;29;20102;-82
2023/05/14 03:18:20;;;;;;;6.60;5.90;;;;;;;10.06;98.86;101200.78;4947523;28;20051;-91
2023/05/14 03:20:46;;;;;;;7.25;5.88;;;;;;;10.05;99.44;101201.66;4944842;28;20062;-84
2023/05/14 03:23:14;;;;;;;8.23;5.82;;;;;;;10.03;99.72;101206.03;4949033;29;20750;-85
2023/05/14 03:25:41;;;;;;;7.72;5.88;;;;;;;10.02;99.75;101201.66;4954396;28;20090;-83
2023/05/14 03:28:07;;;;;;;6.35;5.55;;;;;;;10.01;100.00;101202.50;4938367;28;20402;-82
2023/05/14 03:30:34;;;;;;;7.00;5.43;;;;;;;9.99;100.00;101204.28;4952330;28;20118;-82
2023/05/14 03:33:00;;;;;;;6.75;6.00;;;;;;;9.96;100.00;101202.53;4939116;29;20065;-85
2023/05/14 03:35:27;;;;;;;6.60;6.00;;;;;;;9.94;100.00;101199.03;4950302;29;20042;-83
2023/05/14 03:37:53;;;;;;;7.15;6.32;;;;;;;9.96;100.00;101207.75;4955833;28;20043;-85
2023/05/14 03:40:20;;;;;;;8.85;6.00;;;;;;;9.97;100.00;101206.00;4950945;29;20044;-83
2023/05/14 03:42:46;;;;;;;7.93;5.68;;;;;;;9.93;100.00;101211.22;4953485;29;20043;-83
2023/05/14 03:45:13;;;;;;;7.15;6.45;;;;;;;9.91;100.00;101201.63;4942860;28;20115;-83
2023/05/14 03:47:39;;;;;;;6.25;5.65;;;;;;;9.89;100.00;101198.13;4953514;29;20071;-81
2023/05/14 03:50:07;;;;;;;7.82;5.97;;;;;;;9.87;100.00;101199.88;4941781;29;20040;-84
2023/05/14 03:52:34;;;;;;;5.82;5.32;;;;;;;9.83;100.00;101199.00;4946656;29;20058;-82
2023/05/14 03:55:00;;;;;;;8.45;6.75;;;;;;;9.83;100.00;101201.63;4952729;29;20054;-81
2023/05/14 03:57:27;;;;;;;6.55;5.90;;;;;;;9.83;100.00;101204.22;4951936;29;20059;-82
2023/05/14 03:59:53;;;;;;;7.03;6.32;;;;;;;9.83;100.00;101198.09;4951995;29;20130;-85
2023/05/14 04:02:20;;;;;;;6.43;5.93;;;;;;;9.84;100.00;101205.09;4952207;28;20047;-82
2023/05/14 04:04:46;;;;;;;6.13;5.35;;;;;;;9.80;100.00;101205.94;4946950;29;20047;-83
2023/05/14 04:07:13;;;;;;;6.65;5.95;;;;;;;9.83;100.00;101192.88;4950582;28;20039;-84
2023/05/14 04:09:40;;;;;;;9.02;5.85;;;;;;;9.87;100.00;101200.75;4947953;28;20047;-82
2023/05/14 04:12:07;;;;;;;7.53;6.47;;;;;;;9.93;100.00;101205.09;4950669;28;20051;-82
2023/05/14 04:14:33;;;;;;;6.10;5.57;;;;;;;9.98;100.00;101199.91;4948743;28;20047;-83
2023/05/14 04:17:00;;;;;;;5.63;5.13;;;;;;;9.99;100.00;101204.28;4947446;29;20043;-82
2023/05/14 04:19:26;;;;;;;6.60;5.95;;;;;;;10.03;100.00;101200.78;4946965;29;20055;-83
2023/05/14 04:21:53;;;;;;;6.75;5.10;;;;;;;10.06;100.00;101201.69;4942939;29;20039;-84
2023/05/14 04:24:19;;;;;;;6.03;5.32;;;;;;;10.08;100.00;101202.53;4952305;28;20098;-83
2023/05/14 04:26:46;;;;;;;7.88;5.72;;;;;;;10.12;100.00;101192.06;4956468;28;20721;-81
2023/05/14 04:29:12;;;;;;;5.53;5.03;;;;;;;10.14;100.00;101187.72;4950875;29;20043;-83
2023/05/14 04:31:39;;;;;;;5.30;4.80;;;;;;;10.17;100.00;101192.94;4938138;29;20054;-81
2023/05/14 04:34:06;;;;;;;5.80;5.30;;;;;;;10.21;100.00;101176.41;4949851;28;20043;-82
2023/05/14 04:36:32;;;;;;;6.63;5.93;;;;;;;10.26;100.00;101179.91;4957738;28;20045;-83
2023/05/14 04:38:59;;;;;;;6.22;5.72;;;;;;;10.35;100.00;101179.94;4949014;28;20043;-80
2023/05/14 04:41:25;;;;;;;6.03;5.43;;;;;;;10.40;99.71;101185.16;4955240;29;20054;-81
2023/05/14 04:43:56;;;;;;;11.65;6.80;;;;;;;10.45;99.46;101183.41;4950067;28;20075;-83
2023/05/14 04:46:22;;;;;;;7.75;5.32;;;;;;;10.49;98.87;101187.75;4950481;28;20051;-82
2023/05/14 04:48:50;;;;;;;6.50;5.30;;;;;;;10.55;99.25;101192.16;4932169;29;20498;-82
2023/05/14 04:51:19;;;;;;;5.75;5.13;;;;;;;10.60;98.52;101187.78;4949560;28;20043;-84
2023/05/14 04:53:49;;;;;;;8.60;5.53;;;;;;;10.66;98.04;101192.13;4953747;28;20047;-85
2023/05/14 04:56:15;;;;;;;5.28;4.88;;;;;;;10.70;98.10;101193.88;4952210;28;20055;-84
2023/05/14 04:58:43;;;;;;;7.30;5.28;;;;;;;10.74;97.33;101198.22;4948529;29;20114;-81
2023/05/14 05:01:10;;;;;;;6.38;5.82;;;;;;;10.79;97.20;101199.09;4950633;29;20426;-81
2023/05/14 05:03:36;;;;;;;5.18;4.63;;;;;;;10.86;97.06;101194.72;4956929;28;20069;-82
2023/05/14 05:06:03;;;;;;;5.68;5.18;;;;;;;10.90;96.81;101194.72;4938744;28;20378;-86
2023/05/14 05:08:29;;;;;;;5.80;5.18;;;;;;;10.98;95.88;101199.09;4960232;28;20031;-82
2023/05/14 05:10:56;;;;;;;6.75;4.78;;;;;;;11.04;95.70;101194.72;4957246;28;20039;-85
2023/05/14 05:13:22;;;;;;;5.47;4.72;;;;;;;11.11;95.02;101199.91;4961205;28;20270;-83
2023/05/14 05:15:49;;;;;;;5.47;4.97;;;;;;;11.16;94.96;101195.53;4939210;28;20043;-82
2023/05/14 05:18:18;;;;;;;5.30;4.90;;;;;;;11.21;94.34;101197.28;4959068;28;20043;-83
2023/05/14 05:20:44;;;;;;;6.25;4.63;;;;;;;11.24;94.02;101197.28;4952932;28;20082;-82
2023/05/14 05:23:11;;;;;;;5.07;4.55;;;;;;;11.29;93.43;101196.38;4951004;28;20040;-82
2023/05/14 05:25:37;;;;;;;4.72;4.35;;;;;;;11.37;93.24;101192.88;4935661;29;20672;-82
2023/05/14 05:28:04;;;;;;;5.18;4.75;;;;;;;11.42;93.00;101195.47;4932825;29;20406;-83
2023/05/14 05:30:30;;;;;;;5.20;4.80;;;;;;;11.45;92.58;101190.22;4945541;29;20098;-83
2023/05/14 05:32:57;;;;;;;6.35;5.18;;;;;;;11.53;92.36;101184.94;4931710;29;20053;-83
2023/05/14 05:35:24;;;;;;;7.05;4.97;;;;;;;11.61;92.23;101196.25;4952398;28;20051;-86
2023/05/14 05:37:53;;;;;;;7.85;6.55;;;;;;;11.69;91.67;101190.97;4954334;28;20051;-83
2023/05/14 05:40:19;;;;;;;4.95;4.47;;;;;;;11.75;90.96;101190.94;4946930;29;20126;-83
2023/05/14 05:42:46;;;;;;;5.15;4.68;;;;;;;11.80;90.58;101185.66;4932974;29;20055;-83
2023/05/14 05:45:12;;;;;;;6.07;4.95;;;;;;;11.82;90.54;101189.16;4938123;29;20129;-83
2023/05/14 05:47:39;;;;;;;5.75;5.22;;;;;;;11.86;90.48;101190.88;4956386;29;20123;-82
2023/05/14 05:50:06;;;;;;;8.45;5.43;;;;;;;11.91;89.81;101187.38;4940363;29;20050;-91
2023/05/14 05:52:33;;;;;;;7.35;5.95;;;;;;;11.95;89.37;101196.09;4951684;28;20042;-84
2023/05/14 05:54:59;;;;;;;6.78;5.10;;;;;;;12.02;89.40;101187.34;4949355;29;20174;-83
2023/05/14 05:57:26;;;;;;;8.68;6.35;;;;;;;12.10;88.70;101191.63;4951202;28;20047;-85
2023/05/14 05:59:53;;;;;;;4.80;4.40;;;;;;;12.17;88.35;101194.22;4925472;29;20130;-84
2023/05/14 06:02:20;;;;;;;4.90;4.43;;;;;;;12.26;88.27;101192.44;4942756;29;20110;-83
2023/05/14 06:04:46;;;;;;;5.57;4.82;;;;;;;12.29;88.07;101187.16;4954337;28;20043;-85
2023/05/14 06:07:13;;;;;;;5.20;4.45;;;;;;;12.38;87.92;101187.06;4946780;29;20035;-83
2023/05/14 06:09:39;;;;;;;5.32;4.82;;;;;;;12.46;88.02;101187.88;4949432;28;20087;-87
2023/05/14 06:12:06;;;;;;;5.03;4.60;;;;;;;12.51;87.42;101193.09;4952026;29;20047;-84
2023/05/14 06:14:33;;;;;;;6.28;4.82;;;;;;;12.56;87.18;101191.31;4943313;29;20062;-83
2023/05/14 06:16:59;;;;;;;5.75;5.25;;;;;;;12.59;86.76;101191.28;4948892;29;20450;-86
2023/05/14 06:19:29;;;;;;;8.68;5.47;;;;;;;12.65;86.60;101198.25;4945522;28;20063;-83
2023/05/14 06:21:58;;;;;;;5.25;4.80;;;;;;;12.66;85.76;101190.34;4932899;29;20059;-82
2023/05/14 06:24:28;;;;;;;5.90;4.22;;;;;;;12.73;85.41;101188.53;4937605;29;21003;-83
2023/05/14 06:26:55;;;;;;;5.18;4.65;;;;;;;12.80;84.92;101194.59;4959595;28;20126;-82
2023/05/14 06:29:21;;;;;;;9.02;5.05;;;;;;;12.84;84.28;101191.94;4952645;28;20934;-82
2023/05/14 06:31:48;;;;;;;4.47;4.07;;;;;;;12.89;84.47;101194.50;4942649;29;20061;-82
2023/05/14 06:34:15;;;;;;;5.80;4.78;;;;;;;13.00;83.88;101186.53;4950530;28;20048;-83
2023/05/14 06:36:41;;;;;;;6.07;4.38;;;;;;;13.10;83.85;101193.41;4954969;28;20031;-81
2023/05/14 06:39:11;;;;;;;7.55;5.03;;;;;;;13.18;83.12;101188.06;4930689;29;20047;-81
2023/05/14 06:41:37;;;;;;;4.13;3.75;;;;;;;13.28;83.16;101189.69;4946885;28;20102;-81
2023/05/14 06:44:07;;;;;;;6.00;3.90;;;;;;;13.43;82.48;101179.91;4937229;29;20505;-82
2023/05/14 06:46:33;;;;;;;4.95;4.22;;;;;;;13.54;82.27;101183.28;4953984;28;20713;-85
2023/05/14 06:49:00;;;;;;;7.43;5.10;;;;;;;13.61;82.03;101179.72;4953245;28;20479;-81
2023/05/14 06:51:27;;;;;;;4.93;3.88;;;;;;;13.71;81.50;101185.69;4947292;28;20051;-81
2023/05/14 06:53:54;;;;;;;4.55;4.15;;;;;;;13.82;80.99;101183.81;4951949;29;20513;-81
2023/05/14 06:56:22;;;;;;;4.85;4.45;;;;;;;13.98;80.00;101188.84;4952163;29;20054;-81
2023/05/14 06:58:48;;;;;;;4.18;3.83;;;;;;;14.14;79.36;101182.44;4952794;28;20054;-81
2023/05/14 07:01:19;;;;;;;4.32;3.92;;;;;;;14.27;78.53;101183.13;4937102;29;20043;-85
2023/05/14 07:03:46;;;;;;;4.55;4.25;;;;;;;14.51;77.35;101179.22;4936361;29;20071;-81
2023/05/14 07:06:12;;;;;;;4.75;4.25;;;;;;;14.93;76.01;101175.00;4933747;29;20055;-82
2023/05/14 07:08:41;;;;;;;3.83;3.33;;;;;;;15.51;74.77;101170.34;4934819;28;20075;-81
2023/05/14 07:11:07;;;;;;;3.97;3.50;;;;;;;16.00;70.84;101174.56;4935538;29;20055;-85
2023/05/14 07:13:34;;;;;;;10.00;4.28;;;;;;;16.43;69.64;101172.66;4948094;29;20153;-81
2023/05/14 07:16:00;;;;;;;5.72;3.75;;;;;;;17.02;67.36;101173.81;4948287;28;20031;-81
2023/05/14 07:18:27;;;;;;;3.53;3.22;;;;;;;17.48;65.63;101175.16;4942647;28;20051;-84
2023/05/14 07:20:54;;;;;;;3.30;3.00;;;;;;;17.90;63.80;101168.59;4953355;28;20114;-82
2023/05/14 07:23:20;;;;;;;4.95;3.70;;;;;;;18.28;62.91;101160.38;4950336;29;20513;-83
2023/05/14 07:25:47;;;;;;;4.38;3.00;;;;;;;18.77;62.54;101156.06;4926573;29;20050;-83
2023/05/14 07:28:13;;;;;;;4.72;3.75;;;;;;;19.29;60.08;101161.25;4950883;28;20471;-84
2023/05/14 07:30:40;;;;;;;3.55;3.35;;;;;;;19.73;56.67;101156.97;4947199;29;20506;-81
2023/05/14 07:33:06;;;;;;;5.47;3.35;;;;;;;20.07;56.44;101159.16;4953741;28;20042;-81
2023/05/14 07:35:33;;;;;;;3.88;3.58;;;;;;;20.44;52.37;101155.00;4943955;29;20054;-82
2023/05/14 07:37:59;;;;;;;4.10;2.80;;;;;;;20.28;50.58;101146.78;4962822;28;20039;-81
2023/05/14 07:40:26;;;;;;;3.03;2.83;;;;;;;20.50;50.76;101153.84;4931768;29;20043;-89
2023/05/14 07:42:52;;;;;;;4.03;3.60;;;;;;;20.90;50.36;101152.16;4969600;28;20403;-81
2023/05/14 07:45:19;;;;;;;3.33;3.03;;;;;;;21.18;49.23;101150.06;4954599;28;20050;-82
2023/05/14 07:47:50;;;;;;;3.90;3.40;;;;;;;20.71;48.43;101144.13;4954484;28;20043;-81
2023/05/14 07:50:18;;;;;;;3.25;2.90;;;;;;;20.87;49.40;101146.09;4949185;29;20040;-81
2023/05/14 07:52:45;;;;;;;2.92;2.67;;;;;;;21.27;47.49;101146.97;4951224;29;20052;-80
2023/05/14 07:55:12;;;;;;;2.85;2.65;;;;;;;21.80;46.65;101135.59;4945241;29;20054;-82
2023/05/14 07:57:39;;;;;;;3.55;2.60;;;;;;;22.11;45.65;101141.22;4954318;28;20047;-82
2023/05/14 08:00:07;;;;;;;3.03;2.72;;;;;;;22.53;43.81;101133.81;4959802;28;20035;-84
2023/05/14 08:02:36;;;;;;;2.45;2.35;;;;;;;22.75;42.85;101134.44;4948448;28;20054;-81
2023/05/14 08:05:03;;;;;;;2.90;2.70;;;;;;;22.90;41.95;101134.59;4956811;28;20047;-80
2023/05/14 08:07:30;;;;;;;3.10;2.90;;;;;;;22.90;42.99;101135.44;4953135;29;20070;-82
2023/05/14 08:09:57;;;;;;;3.95;3.75;;;;;;;23.64;41.31;101135.94;4956368;29;20047;-81
2023/05/14 08:12:23;;;;;;;2.78;2.38;;;;;;;24.45;39.35;101132.19;4957159;28;20054;-81
2023/05/14 08:14:50;;;;;;;2.17;2.08;;;;;;;25.24;38.45;101124.72;4935882;29;20151;-82
2023/05/14 08:17:16;;;;;;;3.08;2.85;;;;;;;25.88;37.54;101126.91;4930460;29;20046;-84
2023/05/14 08:19:43;;;;;;;3.40;3.05;;;;;;;25.80;37.34;101129.22;4946677;29;20056;-83
2023/05/14 08:22:10;;;;;;;3.08;2.78;;;;;;;25.14;37.52;101123.59;4951102;29;20394;-83
2023/05/14 08:24:39;;;;;;;5.72;3.40;;;;;;;24.99;37.70;101123.59;4957778;28;20051;-80
2023/05/14 08:27:06;;;;;;;2.35;2.17;;;;;;;25.23;36.38;101120.31;4958478;28;20054;-81
2023/05/14 08:29:33;;;;;;;2.38;2.28;;;;;;;25.63;36.28;101122.28;4945861;28;20493;-83
2023/05/14 08:31:59;;;;;;;2.58;2.38;;;;;;;25.97;35.66;101122.72;4940504;29;20394;-82
2023/05/14 08:34:26;;;;;;;2.95;2.40;;;;;;;26.25;35.71;101125.31;4949286;29;20039;-81
2023/05/14 08:36:53;;;;;;;2.83;2.10;;;;;;;26.25;34.62;101121.78;4959143;28;20047;-83
2023/05/14 08:39:19;;;;;;;2.10;2.00;;;;;;;26.54;34.30;101114.44;4948409;28;20118;-81
2023/05/14 08:41:46;;;;;;;3.15;2.30;;;;;;;26.98;33.59;101109.59;4944059;29;20486;-81
2023/05/14 08:44:19;;;;;;;2.33;2.22;;;;;;;26.44;32.91;101112.47;4945556;29;20235;-87
2023/05/14 08:46:45;;;;;;;;;;;;;;;26.87;32.55;101107.69;4959350;28;20067;-81
2023/05/14 08:49:22;;;;;;;2.50;2.30;;;;;;;27.06;32.32;101112.63;4953769;29;20012;-90
2023/05/14 08:51:49;;;;;;;3.72;2.40;;;;;;;26.39;33.21;101108.28;4954603;28;20050;-83
2023/05/14 08:54:21;;;;;;;3.25;2.58;;;;;;;25.93;33.63;101100.63;4959309;28;20046;-83
2023/05/14 08:56:48;;;;;;;3.25;2.35;;;;;;;26.05;33.36;101099.00;4947463;28;20102;-81
2023/05/14 08:59:15;;;;;;;2.20;1.88;;;;;;;26.45;32.10;101095.38;4956445;28;20047;-85
2023/05/14 09:01:48;;;;;;;1.80;1.70;;;;;;;27.63;31.56;101098.72;4955542;29;20142;-83
2023/05/14 09:04:22;;;;;;;2.05;1.88;;;;;;;28.49;29.24;101094.03;4946149;29;20039;-83
2023/05/14 09:06:51;;;;;;;1.98;1.88;;;;;;;28.30;29.41;101092.75;4935690;29;20043;-86
2023/05/14 09:09:21;;;;;;;4.45;2.40;;;;;;;27.46;29.34;101097.28;4941456;28;20047;-82
2023/05/14 09:11:49;;;;;;;3.40;1.67;;;;;;;27.72;30.10;101098.88;4947834;29;20498;-82
2023/05/14 09:14:15;;;;;;;2.20;2.00;;;;;;;27.94;28.75;101091.03;4949770;29;20042;-82
2023/05/14 09:16:46;;;;;;;2.33;2.13;;;;;;;28.35;29.08;101097.81;4943804;28;20051;-86
2023/05/14 09:19:14;;;;;;;2.60;2.50;;;;;;;28.59;28.66;101099.56;4943540;29;20050;-86
2023/05/14 09:21:42;;;;;;;2.17;2.00;;;;;;;28.12;29.39;101097.75;4953584;29;20067;-82
2023/05/14 09:24:08;;;;;;;2.30;2.08;;;;;;;28.45;28.85;101084.50;4948721;28;20430;-82
2023/05/14 09:26:35;;;;;;;2.45;2.25;;;;;;;28.52;28.33;101088.41;4955024;29;20055;-83
2023/05/14 09:29:03;;;;;;;2.05;1.95;;;;;;;28.78;28.14;101085.53;4952568;29;20110;-82
2023/05/14 09:31:31;;;;;;;3.08;2.75;;;;;;;28.94;27.42;101083.31;4952995;28;20039;-82
2023/05/14 09:33:58;;;;;;;1.92;1.83;;;;;;;29.36;27.27;101080.84;4956405;28;20138;-81
2023/05/14 09:36:26;;;;;;;2.28;2.10;;;;;;;29.10;26.75;101058.69;4957898;28;20051;-81
2023/05/14 09:38:56;;;;;;;3.65;2.08;;;;;;;28.97;27.30;101080.38;4957614;28;20470;-82
2023/05/14 09:41:23;;;;;;;1.83;1.73;;;;;;;29.33;27.24;101070.34;4952087;29;20050;-81
2023/05/14 09:43:51;;;;;;;2.60;2.40;;;;;;;29.94;26.09;101062.66;4942830;29;20133;-82
2023/05/14 09:46:17;;;;;;;2.58;2.42;;;;;;;29.77;25.65;101058.66;4935309;29;20169;-85
2023/05/14 09:48:46;;;;;;;2.78;2.58;;;;;;;30.06;25.47;101066.16;4948349;28;20042;-82
2023/05/14 09:51:14;;;;;;;2.35;2.22;;;;;;;29.90;25.95;101056.66;4945193;29;20039;-84
2023/05/14 09:53:44;;;;;;;2.55;2.13;;;;;;;30.73;25.41;101054.06;4947074;28;20054;-83
2023/05/14 09:56:10;;;;;;;3.25;2.40;;;;;;;30.75;24.30;101062.88;4953610;28;20126;-84
2023/05/14 09:58:37;;;;;;;2.50;2.30;;;;;;;30.68;25.24;101049.06;4952492;28;20035;-82
2023/05/14 10:01:04;;;;;;;2.08;1.70;;;;;;;31.82;24.50;101051.50;4953186;28;20051;-83
2023/05/14 10:03:32;;;;;;;2.20;2.10;;;;;;;32.32;22.14;101045.03;4943712;29;20035;-83
2023/05/14 10:06:04;;;;;;;1.77;1.67;;;;;;;32.16;23.26;101047.44;4952831;28;20074;-85
2023/05/14 10:08:34;;;;;;;2.30;2.20;;;;;;;31.24;22.77;101044.16;4956241;28;20401;-84
2023/05/14 10:11:07;;;;;;;2.50;1.95;;;;;;;30.64;23.76;101049.47;4953063;28;20131;-86
2023/05/14 10:13:40;;;;;;;;;;;;;;;29.86;24.48;101045.22;4944067;29;20135;-83
2023/05/14 10:16:27;;;;;;;2.20;2.10;;;;;;;28.90;25.53;101040.59;4938439;29;20016;-88
2023/05/14 10:18:57;;;;;;;2.72;2.53;;;;;;;28.01;26.30;101043.84;4933797;29;20043;-82
2023/05/14 10:21:25;;;;;;;2.38;2.25;;;;;;;27.32;26.99;101039.97;4960233;28;20055;-83
2023/05/14 10:23:52;;;;;;;2.33;2.22;;;;;;;27.97;26.37;101039.69;4931779;28;20352;-82
2023/05/14 10:26:18;;;;;;;2.33;2.13;;;;;;;29.34;25.38;101026.19;4951586;29;20059;-82
2023/05/14 10:28:45;;;;;;;2.83;2.10;;;;;;;30.75;23.25;101035.84;4938690;28;20047;-84
2023/05/14 10:31:12;;;;;;;4.82;2.50;;;;;;;30.22;22.91;101027.88;4942868;28;20043;-84
2023/05/14 10:33:51;;;;;;;2.58;2.38;;;;;;;29.31;24.05;101037.22;4947412;29;20497;-81
2023/05/14 10:36:18;;;;;;;3.50;2.90;;;;;;;28.76;25.08;101036.28;4949878;29;20047;-82
2023/05/14 10:38:45;;;;;;;2.92;2.08;;;;;;;28.92;24.66;101031.41;4953904;28;20050;-82
2023/05/14 10:41:16;;;;;;;3.47;2.78;;;;;;;29.51;24.54;101032.03;4941437;29;20040;-83
2023/05/14 10:43:44;;;;;;;2.33;2.22;;;;;;;30.01;23.88;101028.75;4934681;29;20048;-81
2023/05/14 10:46:13;;;;;;;2.33;2.15;;;;;;;30.54;23.25;101024.28;4936419;29;20494;-82
2023/05/14 10:48:42;;;;;;;2.55;2.20;;;;;;;30.01;23.29;101023.34;4945763;29;20067;-84
2023/05/14 10:51:19;;;;;;;2.50;2.30;;;;;;;31.33;22.18;101018.13;4934582;29;20075;-83
2023/05/14 10:53:46;;;;;;;3.00;2.80;;;;;;;31.72;21.71;101020.88;4954035;28;20118;-83
2023/05/14 10:56:17;;;;;;;3.33;2.47;;;;;;;32.77;20.44;101010.09;4948922;29;20368;-82
2023/05/14 10:58:46;;;;;;;2.63;2.38;;;;;;;33.02;21.12;101015.78;4944459;29;20130;-82
2023/05/14 11:01:13;;;;;;;3.50;2.72;;;;;;;34.61;19.64;101002.34;4951845;28;20043;-83
2023/05/14 11:03:45;;;;;;;5.32;2.50;;;;;;;34.05;19.69;100999.97;4962336;28;20062;-83
2023/05/14 11:06:15;;;;;;;3.33;2.58;;;;;;;31.92;21.35;100994.63;4946125;28;20104;-82
2023/05/14 11:08:42;;;;;;;2.53;2.33;;;;;;;31.06;21.14;101005.28;4951142;28;20053;-83
2023/05/14 11:11:09;;;;;;;2.75;2.13;;;;;;;30.74;22.18;101009.84;4946333;28;20110;-82
2023/05/14 11:13:36;;;;;;;3.88;2.50;;;;;;;30.93;22.18;100995.53;4939419;28;20049;-83
2023/05/14 11:16:03;;;;;;;2.80;2.47;;;;;;;31.86;21.17;100986.22;4950252;28;20043;-90
2023/05/14 11:18:32;;;;;;;2.30;2.30;;;;;;;32.56;20.91;100992.16;4931211;28;20059;-84
2023/05/14 11:21:02;;;;;;;4.00;2.28;;;;;;;33.70;19.84;100977.31;4946588;28;20070;-82
2023/05/14 11:23:29;;;;;;;2.85;1.90;;;;;;;34.22;19.80;100970.19;4949396;28;20051;-83
2023/05/14 11:25:58;;;;;;;2.50;2.30;;;;;;;34.49;19.06;100976.50;4945778;29;20499;-85